createdAt,value
2024-05-09T00:00:39.888Z,10.74
2024-05-09T00:03:12.025Z,10.79
2024-05-09T00:05:46.464Z,10.99
2024-05-09T00:08:16.859Z,10.63
2024-05-09T00:10:46.815Z,10.22
2024-05-09T00:13:16.919Z,10.33
2024-05-09T00:15:46.712Z,10.52
2024-05-09T00:18:16.711Z,10.62
2024-05-09T00:20:49.282Z,10.50
2024-05-09T00:23:19.267Z,10.64
2024-05-09T00:25:49.095Z,10.73
2024-05-09T00:28:18.916Z,10.84
2024-05-09T00:30:48.672Z,10.78
2024-05-09T00:33:18.761Z,10.94
2024-05-09T00:35:51.293Z,10.91
2024-05-09T00:38:21.271Z,10.88
2024-05-09T00:40:51.173Z,10.88
2024-05-09T00:43:20.949Z,10.87
2024-05-09T00:45:51.342Z,10.92
2024-05-09T00:48:21.719Z,10.75
2024-05-09T00:50:55.967Z,10.82
2024-05-09T00:53:26.872Z,10.78
2024-05-09T00:55:59.023Z,10.87
2024-05-09T00:58:31.913Z,10.86
2024-05-09T01:01:04.406Z,10.88
2024-05-09T01:03:34.303Z,10.92
2024-05-09T01:06:07.140Z,10.80
2024-05-09T01:08:37.161Z,10.76
2024-05-09T01:11:09.174Z,10.69
2024-05-09T01:13:39.128Z,10.80
2024-05-09T01:16:09.390Z,10.55
2024-05-09T01:18:39.319Z,10.29
2024-05-09T01:21:11.934Z,10.25
2024-05-09T01:23:44.544Z,10.24
2024-05-09T01:26:14.520Z,10.24
2024-05-09T01:28:44.548Z,10.62
2024-05-09T01:31:16.175Z,10.62
2024-05-09T01:33:46.428Z,10.76
2024-05-09T01:36:16.357Z,10.78
2024-05-09T01:38:49.000Z,10.67
2024-05-09T01:41:18.801Z,10.75
2024-05-09T01:43:48.637Z,10.71
2024-05-09T01:46:19.531Z,10.45
2024-05-09T01:48:49.914Z,10.57
2024-05-09T01:51:19.983Z,10.45
2024-05-09T01:53:52.438Z,10.49
2024-05-09T01:56:31.022Z,10.57
2024-05-09T01:59:02.030Z,10.40
2024-05-09T02:01:55.310Z,10.36
2024-05-09T02:04:21.811Z,10.18
2024-05-09T02:06:51.672Z,10.36
2024-05-09T02:09:24.193Z,10.45
2024-05-09T02:11:54.192Z,10.35
2024-05-09T02:14:24.193Z,10.40
2024-05-09T02:16:54.124Z,10.36
2024-05-09T02:19:24.028Z,10.40
2024-05-09T02:21:53.947Z,10.43
2024-05-09T02:24:26.676Z,10.49
2024-05-09T02:26:56.466Z,10.60
2024-05-09T02:29:26.489Z,10.57
2024-05-09T02:31:56.488Z,10.56
2024-05-09T02:34:26.445Z,10.35
2024-05-09T02:36:56.509Z,10.54
2024-05-09T02:39:26.493Z,10.41
2024-05-09T02:41:56.268Z,10.29
2024-05-09T02:44:23.587Z,10.22
2024-05-09T02:46:53.541Z,10.32
2024-05-09T02:49:20.796Z,10.41
2024-05-09T02:51:50.641Z,10.34
2024-05-09T02:54:17.785Z,10.28
2024-05-09T02:56:50.219Z,10.30
2024-05-09T02:59:17.399Z,10.31
2024-05-09T03:01:47.770Z,10.25
2024-05-09T03:04:15.017Z,10.14
2024-05-09T03:06:45.037Z,10.07
2024-05-09T03:09:12.261Z,9.75
2024-05-09T03:11:42.234Z,9.98
2024-05-09T03:14:16.677Z,10.00
2024-05-09T03:16:46.613Z,10.04
2024-05-09T03:19:13.940Z,9.87
2024-05-09T03:21:43.880Z,9.82
2024-05-09T03:24:11.614Z,9.81
2024-05-09T03:26:41.401Z,9.40
2024-05-09T03:29:08.584Z,9.54
2024-05-09T03:31:41.849Z,9.48
2024-05-09T03:34:10.192Z,9.48
2024-05-09T03:36:44.327Z,9.49
2024-05-09T03:39:17.157Z,9.58
2024-05-09T03:41:46.924Z,9.51
2024-05-09T03:44:16.786Z,9.45
2024-05-09T03:46:49.301Z,9.32
2024-05-09T03:49:16.677Z,9.44
2024-05-09T03:51:47.011Z,9.45
2024-05-09T03:54:14.393Z,9.29
2024-05-09T03:56:44.220Z,9.28
2024-05-09T03:59:11.532Z,9.34
2024-05-09T04:01:41.571Z,9.38
2024-05-09T04:04:12.438Z,9.31
2024-05-09T04:06:43.275Z,9.26
2024-05-09T04:09:10.449Z,9.13
2024-05-09T04:11:40.479Z,9.15
2024-05-09T04:14:07.807Z,8.96
2024-05-09T04:16:37.603Z,9.18
2024-05-09T04:19:04.884Z,9.20
2024-05-09T04:21:37.422Z,9.06
2024-05-09T04:24:04.986Z,9.23
2024-05-09T04:26:34.845Z,9.21
2024-05-09T04:29:02.072Z,9.12
2024-05-09T04:31:32.314Z,9.22
2024-05-09T04:33:59.607Z,9.12
2024-05-09T04:36:29.592Z,8.98
2024-05-09T04:38:59.338Z,8.94
2024-05-09T04:41:29.475Z,9.12
2024-05-09T04:43:56.716Z,8.91
2024-05-09T04:46:26.536Z,9.00
2024-05-09T04:48:54.021Z,8.89
2024-05-09T04:51:23.889Z,9.14
2024-05-09T04:53:51.064Z,9.22
2024-05-09T04:56:47.395Z,9.06
2024-05-09T04:59:14.587Z,9.12
2024-05-09T05:01:44.401Z,9.19
2024-05-09T05:04:11.661Z,9.24
2024-05-09T05:06:41.453Z,9.32
2024-05-09T05:09:08.654Z,9.36
2024-05-09T05:11:38.497Z,9.26
2024-05-09T05:14:08.380Z,9.22
2024-05-09T05:16:38.198Z,9.36
2024-05-09T05:19:07.575Z,9.42
2024-05-09T05:21:39.084Z,9.33
2024-05-09T05:24:06.601Z,9.14
2024-05-09T05:26:36.976Z,9.39
2024-05-09T05:29:04.252Z,9.66
2024-05-09T05:31:36.814Z,9.77
2024-05-09T05:34:04.045Z,9.94
2024-05-09T05:36:33.847Z,10.09
2024-05-09T05:39:01.047Z,10.48
2024-05-09T05:41:31.032Z,10.64
2024-05-09T05:43:58.302Z,10.90
2024-05-09T05:46:28.109Z,11.15
2024-05-09T05:48:57.962Z,11.48
2024-05-09T05:51:27.848Z,11.71
2024-05-09T05:53:55.361Z,11.99
2024-05-09T05:56:32.417Z,11.75
2024-05-09T05:58:59.633Z,11.79
2024-05-09T06:01:31.764Z,11.82
2024-05-09T06:04:01.616Z,12.15
2024-05-09T06:06:31.510Z,12.16
2024-05-09T06:08:58.708Z,12.41
2024-05-09T06:11:29.598Z,12.42
2024-05-09T06:13:56.908Z,12.48
2024-05-09T06:16:26.771Z,12.86
2024-05-09T06:18:54.257Z,13.02
2024-05-09T06:21:26.809Z,12.84
2024-05-09T06:23:59.998Z,12.82
2024-05-09T06:26:28.925Z,12.84
2024-05-09T06:29:00.009Z,12.86
2024-05-09T06:31:27.619Z,13.22
2024-05-09T06:34:00.455Z,13.06
2024-05-09T06:36:33.424Z,13.12
2024-05-09T06:39:03.355Z,13.12
2024-05-09T06:41:31.571Z,13.28
2024-05-09T06:44:01.545Z,13.40
2024-05-09T06:46:48.165Z,13.45
2024-05-09T06:49:18.104Z,13.31
2024-05-09T06:51:48.026Z,13.46
2024-05-09T06:54:18.442Z,13.23
2024-05-09T06:56:45.590Z,13.62
2024-05-09T06:59:15.372Z,13.81
2024-05-09T07:01:42.626Z,13.22
2024-05-09T07:04:12.665Z,13.38
2024-05-09T07:06:39.946Z,13.70
2024-05-09T07:09:12.356Z,13.37
2024-05-09T07:11:41.048Z,13.38
2024-05-09T07:14:10.966Z,13.46
2024-05-09T07:16:38.160Z,13.52
2024-05-09T07:19:08.262Z,13.47
2024-05-09T07:21:35.650Z,13.43
2024-05-09T07:24:06.373Z,13.56
2024-05-09T07:26:36.323Z,13.62
2024-05-09T07:29:06.212Z,13.63
2024-05-09T07:31:33.351Z,13.71
2024-05-09T07:34:03.211Z,13.89
2024-05-09T07:36:30.374Z,13.85
2024-05-09T07:39:00.985Z,13.91
2024-05-09T07:41:28.173Z,14.00
2024-05-09T07:44:00.668Z,13.99
2024-05-09T07:47:36.808Z,13.93
2024-05-09T07:51:31.277Z,14.16
2024-05-09T07:54:38.081Z,14.19
2024-05-09T07:57:05.652Z,14.20
2024-05-09T07:59:38.299Z,14.46
2024-05-09T08:02:05.878Z,14.47
2024-05-09T08:04:35.968Z,14.63
2024-05-09T08:07:03.322Z,14.42
2024-05-09T08:09:33.884Z,14.35
2024-05-09T08:12:01.780Z,14.31
2024-05-09T08:14:31.555Z,14.44
2024-05-09T08:17:01.440Z,14.43
2024-05-09T08:19:31.257Z,14.50
2024-05-09T08:21:58.470Z,14.61
2024-05-09T08:24:28.304Z,14.80
2024-05-09T08:26:55.457Z,14.82
2024-05-09T08:29:25.268Z,15.68
2024-05-09T08:31:56.169Z,15.79
2024-05-09T08:34:28.932Z,15.96
2024-05-09T08:36:57.619Z,15.76
2024-05-09T08:39:29.404Z,15.85
2024-05-09T08:41:56.822Z,15.81
2024-05-09T08:44:26.605Z,16.05
2024-05-09T08:46:54.045Z,15.63
2024-05-09T08:49:25.702Z,15.74
2024-05-09T08:51:55.713Z,16.25
2024-05-09T08:54:25.605Z,16.25
2024-05-09T08:56:52.898Z,15.80
2024-05-09T08:59:30.147Z,15.63
2024-05-09T09:01:58.138Z,15.64
2024-05-09T09:04:29.463Z,15.46
2024-05-09T09:07:00.415Z,15.70
2024-05-09T09:09:33.442Z,15.83
2024-05-09T09:12:01.042Z,15.94
2024-05-09T09:14:30.981Z,16.12
2024-05-09T09:16:58.130Z,16.26
2024-05-09T09:19:28.212Z,16.39
2024-05-09T09:21:55.441Z,16.30
2024-05-09T09:24:28.000Z,16.69
2024-05-09T09:26:57.336Z,16.71
2024-05-09T09:29:27.688Z,16.45
2024-05-09T09:32:21.118Z,16.56
2024-05-09T09:34:51.256Z,16.61
2024-05-09T09:37:23.710Z,16.63
2024-05-09T09:39:57.092Z,16.55
2024-05-09T09:42:27.884Z,16.89
2024-05-09T09:45:04.612Z,16.57
2024-05-09T09:47:35.353Z,16.66
2024-05-09T09:50:12.027Z,16.89
2024-05-09T09:52:41.812Z,16.93
2024-05-09T09:55:15.063Z,17.16
2024-05-09T09:57:44.459Z,16.97
2024-05-09T10:00:23.615Z,17.08
2024-05-09T10:02:54.100Z,17.13
2024-05-09T10:05:24.283Z,17.11
2024-05-09T10:07:52.777Z,17.13
2024-05-09T10:10:32.473Z,16.73
2024-05-09T10:13:01.386Z,17.14
2024-05-09T10:15:31.372Z,17.03
2024-05-09T10:18:05.529Z,17.10
2024-05-09T10:20:43.397Z,17.73
2024-05-09T10:23:27.618Z,17.91
2024-05-09T10:26:05.307Z,18.21
2024-05-09T10:28:35.580Z,17.87
2024-05-09T10:31:09.965Z,18.35
2024-05-09T10:33:45.375Z,18.22
2024-05-09T10:36:16.099Z,18.04
2024-05-09T10:38:43.991Z,18.26
2024-05-09T10:41:16.504Z,18.94
2024-05-09T10:43:46.177Z,18.76
2024-05-09T10:46:16.689Z,18.69
2024-05-09T10:48:44.389Z,18.67
2024-05-09T10:51:14.904Z,18.33
2024-05-09T10:53:42.708Z,18.16
2024-05-09T10:56:13.072Z,18.41
2024-05-09T10:58:42.989Z,18.28
2024-05-09T11:01:14.097Z,18.47
2024-05-09T11:03:41.988Z,18.50
2024-05-09T11:06:13.880Z,18.70
2024-05-09T11:08:42.352Z,18.91
2024-05-09T11:11:12.317Z,19.19
2024-05-09T11:13:42.874Z,18.79
2024-05-09T11:16:20.633Z,18.77
2024-05-09T11:18:55.750Z,18.82
2024-05-09T11:21:27.018Z,18.69
2024-05-09T11:23:54.804Z,18.96
2024-05-09T11:26:25.480Z,19.18
2024-05-09T11:28:55.387Z,19.58
2024-05-09T11:31:25.377Z,19.91
2024-05-09T11:33:54.769Z,19.50
2024-05-09T11:36:24.693Z,19.78
2024-05-09T11:38:51.876Z,20.43
2024-05-09T11:41:21.722Z,19.95
2024-05-09T11:43:48.893Z,19.95
2024-05-09T11:46:21.621Z,19.95
2024-05-09T11:48:49.102Z,19.73
2024-05-09T11:51:18.955Z,19.25
2024-05-09T11:53:46.113Z,19.25
2024-05-09T11:56:28.045Z,18.94
2024-05-09T11:58:55.188Z,19.17
2024-05-09T12:01:28.124Z,19.33
2024-05-09T12:03:55.601Z,19.51
2024-05-09T12:06:25.630Z,19.70
2024-05-09T12:08:52.832Z,20.10
2024-05-09T12:11:22.634Z,20.85
2024-05-09T12:13:49.780Z,20.41
2024-05-09T12:16:19.756Z,20.07
2024-05-09T12:18:49.954Z,19.78
2024-05-09T12:21:20.771Z,19.77
2024-05-09T12:23:47.963Z,19.83
2024-05-09T12:26:18.497Z,19.55
2024-05-09T12:28:45.698Z,20.22
2024-05-09T12:31:15.577Z,20.81
2024-05-09T12:33:42.816Z,20.71
2024-05-09T12:36:15.358Z,20.74
2024-05-09T12:38:42.526Z,20.56
2024-05-09T12:41:12.300Z,20.39
2024-05-09T12:43:39.514Z,20.15
2024-05-09T12:46:09.477Z,20.08
2024-05-09T12:48:37.174Z,20.13
2024-05-09T12:51:07.433Z,20.22
2024-05-09T12:53:37.291Z,20.22
2024-05-09T12:56:09.385Z,20.09
2024-05-09T12:58:36.991Z,19.98
2024-05-09T13:01:08.936Z,20.09
2024-05-09T13:03:36.299Z,20.45
2024-05-09T13:06:06.412Z,20.19
2024-05-09T13:08:33.612Z,20.37
2024-05-09T13:11:06.169Z,20.57
2024-05-09T13:13:33.419Z,21.01
2024-05-09T13:16:03.320Z,22.10
2024-05-09T13:18:30.703Z,21.90
2024-05-09T13:21:00.522Z,21.38
2024-05-09T13:23:27.710Z,21.02
2024-05-09T13:25:57.596Z,21.14
2024-05-09T13:28:27.622Z,21.09
2024-05-09T13:30:57.578Z,20.92
2024-05-09T13:33:24.822Z,20.87
2024-05-09T13:35:54.776Z,20.66
2024-05-09T13:38:22.524Z,20.61
2024-05-09T13:40:53.445Z,20.79
2024-05-09T13:43:22.306Z,20.59
2024-05-09T13:45:55.933Z,20.44
2024-05-09T13:48:23.067Z,21.65
2024-05-09T13:50:52.939Z,21.52
2024-05-09T13:53:24.175Z,21.60
2024-05-09T13:55:54.104Z,22.04
2024-05-09T13:58:23.614Z,22.04
2024-05-09T14:00:56.401Z,22.66
2024-05-09T14:03:24.745Z,22.88
2024-05-09T14:05:54.851Z,22.59
2024-05-09T14:08:22.970Z,22.50
2024-05-09T14:10:53.888Z,21.96
2024-05-09T14:13:21.380Z,21.40
2024-05-09T14:15:51.521Z,21.35
2024-05-09T14:18:21.714Z,21.23
2024-05-09T14:20:51.490Z,21.37
2024-05-09T14:23:18.963Z,21.36
2024-05-09T14:25:52.164Z,21.03
2024-05-09T14:28:19.909Z,21.08
2024-05-09T14:30:49.759Z,21.29
2024-05-09T14:33:23.666Z,21.37
2024-05-09T14:35:56.305Z,21.78
2024-05-09T14:38:24.164Z,21.73
2024-05-09T14:40:54.020Z,22.13
2024-05-09T14:43:21.491Z,22.49
2024-05-09T14:45:52.715Z,22.30
2024-05-09T14:48:20.405Z,22.97
2024-05-09T14:50:50.594Z,22.96
2024-05-09T14:53:23.683Z,22.82
2024-05-09T14:55:53.583Z,22.20
2024-05-09T14:58:20.853Z,21.76
2024-05-09T15:00:51.751Z,21.99
2024-05-09T15:03:20.236Z,22.19
2024-05-09T15:05:51.600Z,21.26
2024-05-09T15:08:21.950Z,22.07
2024-05-09T15:10:52.258Z,22.35
2024-05-09T15:13:19.983Z,22.30
2024-05-09T15:15:50.087Z,22.28
2024-05-09T15:18:19.964Z,22.30
2024-05-09T15:20:50.194Z,22.08
2024-05-09T15:23:17.466Z,22.38
2024-05-09T15:25:49.872Z,22.07
2024-05-09T15:28:17.183Z,22.07
2024-05-09T15:30:48.237Z,21.99
2024-05-09T15:33:15.664Z,21.76
2024-05-09T15:35:48.594Z,21.53
2024-05-09T15:38:20.467Z,20.39
2024-05-09T15:40:53.757Z,20.60
2024-05-09T15:43:21.058Z,20.71
2024-05-09T15:45:51.301Z,20.51
2024-05-09T15:48:18.988Z,20.43
2024-05-09T15:50:48.989Z,20.73
2024-05-09T15:53:16.451Z,20.78
2024-05-09T15:55:46.202Z,20.80
2024-05-09T15:58:16.275Z,20.77
2024-05-09T16:00:48.673Z,20.63
2024-05-09T16:03:17.746Z,20.92
2024-05-09T16:05:48.322Z,21.08
2024-05-09T16:08:16.536Z,21.58
2024-05-09T16:10:47.451Z,21.62
2024-05-09T16:13:19.806Z,21.54
2024-05-09T16:15:49.965Z,21.84
2024-05-09T16:18:17.477Z,21.94
2024-05-09T16:20:49.589Z,22.05
2024-05-09T16:23:17.764Z,22.03
2024-05-09T16:25:48.490Z,21.56
2024-05-09T16:28:19.394Z,21.17
2024-05-09T16:30:50.014Z,21.00
2024-05-09T16:33:20.997Z,20.98
2024-05-09T16:35:51.088Z,21.14
2024-05-09T16:38:18.682Z,21.23
2024-05-09T16:40:48.952Z,21.66
2024-05-09T16:43:19.392Z,21.41
2024-05-09T16:45:49.379Z,21.06
2024-05-09T16:48:17.062Z,20.94
2024-05-09T16:50:46.875Z,20.52
2024-05-09T16:53:14.037Z,20.53
2024-05-09T16:55:43.940Z,20.26
2024-05-09T16:58:12.753Z,20.29
2024-05-09T17:00:45.529Z,20.22
2024-05-09T17:03:15.204Z,20.30
2024-05-09T17:05:47.041Z,20.31
2024-05-09T17:08:18.639Z,20.41
2024-05-09T17:10:46.435Z,19.86
2024-05-09T17:13:16.593Z,19.86
2024-05-09T17:15:50.045Z,20.05
2024-05-09T17:18:20.369Z,20.07
2024-05-09T17:20:49.265Z,20.06
2024-05-09T17:23:19.731Z,20.10
2024-05-09T17:25:47.994Z,20.21
2024-05-09T17:28:19.338Z,20.17
2024-05-09T17:30:50.119Z,20.17
2024-05-09T17:33:20.120Z,20.35
2024-05-09T17:35:50.821Z,20.35
2024-05-09T17:38:23.039Z,20.26
2024-05-09T17:40:50.910Z,20.37
2024-05-09T17:43:20.942Z,20.25
2024-05-09T17:45:50.923Z,20.20
2024-05-09T17:48:20.937Z,20.12
2024-05-09T17:50:48.189Z,20.08
2024-05-09T17:53:17.973Z,19.96
2024-05-09T17:55:45.190Z,19.65
2024-05-09T17:58:15.652Z,19.63
2024-05-09T18:00:43.074Z,19.39
2024-05-09T18:03:15.648Z,19.36
2024-05-09T18:05:44.125Z,19.26
2024-05-09T18:08:14.716Z,19.15
2024-05-09T18:10:42.342Z,19.04
2024-05-09T18:13:13.459Z,19.00
2024-05-09T18:15:41.258Z,18.98
2024-05-09T18:18:11.973Z,18.89
2024-05-09T18:20:45.364Z,18.63
2024-05-09T18:23:18.034Z,18.50
2024-05-09T18:25:47.184Z,18.54
2024-05-09T18:28:17.930Z,18.57
2024-05-09T18:30:45.465Z,18.48
2024-05-09T18:33:15.875Z,18.28
2024-05-09T18:35:45.799Z,18.23
2024-05-09T18:38:18.658Z,17.95
2024-05-09T18:40:48.503Z,17.96
2024-05-09T18:43:25.952Z,17.80
2024-05-09T18:46:00.744Z,17.70
2024-05-09T18:48:28.046Z,17.66
2024-05-09T18:51:00.585Z,17.65
2024-05-09T18:53:31.237Z,17.61
2024-05-09T18:56:01.131Z,17.24
2024-05-09T18:58:28.310Z,16.92
2024-05-09T19:01:00.830Z,16.72
2024-05-09T19:03:29.112Z,16.42
2024-05-09T19:06:04.733Z,16.33
2024-05-09T19:08:32.060Z,16.33
2024-05-09T19:11:02.196Z,16.27
2024-05-09T19:13:29.706Z,16.26
2024-05-09T19:15:59.974Z,16.11
2024-05-09T19:18:27.284Z,16.19
2024-05-09T19:20:57.291Z,15.89
2024-05-09T19:23:27.108Z,15.84
2024-05-09T19:25:56.956Z,15.75
2024-05-09T19:28:24.307Z,15.75
2024-05-09T19:30:54.230Z,15.43
2024-05-09T19:33:21.460Z,15.45
2024-05-09T19:35:51.343Z,15.13
2024-05-09T19:38:18.712Z,14.81
2024-05-09T19:40:51.174Z,15.05
2024-05-09T19:43:18.616Z,15.11
2024-05-09T19:45:48.692Z,15.03
2024-05-09T19:48:16.638Z,15.02
2024-05-09T19:50:49.771Z,14.94
2024-05-09T19:53:18.615Z,14.78
2024-05-09T19:55:51.001Z,14.78
2024-05-09T19:58:18.230Z,14.71
2024-05-09T20:00:48.147Z,14.55
2024-05-09T20:03:16.168Z,14.48
2024-05-09T20:05:48.802Z,14.40
2024-05-09T20:08:16.609Z,14.19
2024-05-09T20:10:52.420Z,13.80
2024-05-09T20:13:19.763Z,14.05
2024-05-09T20:15:50.816Z,14.11
2024-05-09T20:18:19.442Z,14.13
2024-05-09T20:20:55.215Z,13.84
2024-05-09T20:23:22.532Z,13.99
2024-05-09T20:25:57.321Z,13.87
2024-05-09T20:28:24.689Z,13.96
2024-05-09T20:30:55.604Z,13.91
2024-05-09T20:33:25.849Z,13.61
2024-05-09T20:36:01.646Z,13.87
2024-05-09T20:38:29.417Z,13.79
2024-05-09T20:41:02.075Z,13.70
2024-05-09T20:43:29.389Z,13.62
2024-05-09T20:45:59.243Z,13.54
2024-05-09T20:48:26.612Z,13.69
2024-05-09T20:50:56.516Z,13.74
2024-05-09T20:53:23.899Z,13.64
2024-05-09T20:55:54.003Z,13.43
2024-05-09T20:58:24.116Z,13.52
2024-05-09T21:00:55.731Z,13.45
2024-05-09T21:03:23.032Z,13.30
2024-05-09T21:05:52.963Z,13.38
2024-05-09T21:08:20.126Z,13.31
2024-05-09T21:10:49.965Z,13.35
2024-05-09T21:13:17.206Z,13.50
2024-05-09T21:15:49.751Z,13.48
2024-05-09T21:18:17.010Z,13.53
2024-05-09T21:20:47.130Z,13.54
2024-05-09T21:23:15.623Z,13.67
2024-05-09T21:25:45.560Z,13.70
2024-05-09T21:28:13.483Z,13.71
2024-05-09T21:30:43.595Z,13.68
2024-05-09T21:33:14.856Z,13.85
2024-05-09T21:35:45.791Z,13.96
2024-05-09T21:38:14.611Z,14.02
2024-05-09T21:40:45.428Z,14.06
2024-05-09T21:43:13.155Z,13.92
2024-05-09T21:45:43.220Z,13.79
2024-05-09T21:48:15.396Z,13.55
2024-05-09T21:50:45.299Z,13.60
2024-05-09T21:53:13.430Z,13.64
2024-05-09T21:55:44.333Z,13.70
2024-05-09T21:58:12.203Z,13.63
2024-05-09T22:00:43.048Z,13.48
2024-05-09T22:03:11.624Z,13.49
2024-05-09T22:05:45.194Z,13.63
2024-05-09T22:08:12.797Z,13.54
2024-05-09T22:10:42.754Z,13.39
2024-05-09T22:13:12.693Z,13.18
2024-05-09T22:15:40.748Z,13.30
2024-05-09T22:18:11.997Z,12.91
2024-05-09T22:20:44.959Z,12.92
2024-05-09T22:23:16.292Z,12.63
2024-05-09T22:25:43.650Z,12.86
2024-05-09T22:28:15.761Z,12.85
2024-05-09T22:30:46.242Z,12.59
2024-05-09T22:33:17.744Z,12.52
2024-05-09T22:35:48.220Z,12.31
2024-05-09T22:38:18.119Z,12.30
2024-05-09T22:40:48.661Z,12.41
2024-05-09T22:43:23.865Z,12.52
2024-05-09T22:45:52.668Z,12.44
2024-05-09T22:48:23.869Z,12.49
2024-05-09T22:50:55.073Z,12.42
2024-05-09T22:53:26.100Z,12.38
2024-05-09T22:56:03.408Z,12.17
2024-05-09T22:58:33.201Z,12.01
2024-05-09T23:01:00.537Z,11.90
2024-05-09T23:03:30.621Z,11.94
2024-05-09T23:06:00.507Z,11.44
2024-05-09T23:08:30.310Z,11.72
2024-05-09T23:10:57.748Z,11.68
2024-05-09T23:13:27.814Z,11.68
2024-05-09T23:15:55.116Z,11.42
2024-05-09T23:18:24.932Z,11.32
2024-05-09T23:20:52.110Z,11.21
2024-05-09T23:23:24.577Z,11.53
2024-05-09T23:25:51.699Z,11.47
2024-05-09T23:28:21.656Z,10.97
2024-05-09T23:30:49.068Z,11.23
2024-05-09T23:33:19.068Z,10.73
2024-05-09T23:35:46.249Z,11.16
2024-05-09T23:38:16.309Z,11.23
2024-05-09T23:40:46.214Z,10.88
2024-05-09T23:43:17.142Z,11.01
2024-05-09T23:45:44.377Z,10.98
2024-05-09T23:48:14.429Z,11.05
2024-05-09T23:50:42.013Z,11.08
2024-05-09T23:53:11.913Z,10.85
2024-05-09T23:55:39.492Z,10.47
2024-05-09T23:58:12.300Z,10.58
